sensor_id;sensor_type;location;lat;lon;timestamp;pressure;altitude;pressure_sealevel;temperature;humidity
5872;BME280;2962;51.312;7.378;2023-03-11T00:02:21;96221.47;;;-1.90;100.00
5872;BME280;2962;51.312;7.378;2023-03-11T00:04:46;96224.31;;;-1.95;100.00
5872;BME280;2962;51.312;7.378;2023-03-11T00:07:12;96236.22;;;-1.93;100.00
5872;BME280;2962;51.312;7.378;2023-03-11T00:09:37;96245.50;;;-1.90;100.00
5872;BME280;2962;51.312;7.378;2023-03-11T00:12:03;96245.66;;;-1.95;100.00
5872;BME280;2962;51.312;7.378;2023-03-11T00:14:28;96236.06;;;-1.97;100.00
5872;BME280;2962;51.312;7.378;2023-03-11T00:16:54;96252.41;;;-1.98;100.00
5872;BME280;2962;51.312;7.378;2023-03-11T00:19:20;96250.69;;;-2.03;100.00
5872;BME280;2962;51.312;7.378;2023-03-11T00:21:45;96274.69;;;-1.94;100.00
5872;BME280;2962;51.312;7.378;2023-03-11T00:24:10;96292.75;;;-1.91;100.00
5872;BME280;2962;51.312;7.378;2023-03-11T00:26:36;96279.88;;;-1.89;100.00
5872;BME280;2962;51.312;7.378;2023-03-11T00:29:01;96281.00;;;-1.99;100.00
5872;BME280;2962;51.312;7.378;2023-03-11T00:31:26;96287.25;;;-1.94;100.00
5872;BME280;2962;51.312;7.378;2023-03-11T00:33:52;96287.09;;;-1.89;100.00
5872;BME280;2962;51.312;7.378;2023-03-11T00:36:29;96292.28;;;-1.84;100.00
5872;BME280;2962;51.312;7.378;2023-03-11T00:38:59;96297.91;;;-1.86;100.00
5872;BME280;2962;51.312;7.378;2023-03-11T00:41:27;96307.03;;;-1.87;100.00
5872;BME280;2962;51.312;7.378;2023-03-11T00:43:52;96295.88;;;-1.89;100.00
5872;BME280;2962;51.312;7.378;2023-03-11T00:46:18;96321.66;;;-1.84;100.00
5872;BME280;2962;51.312;7.378;2023-03-11T00:48:43;96310.97;;;-1.93;100.00
5872;BME280;2962;51.312;7.378;2023-03-11T00:51:15;96314.91;;;-1.90;100.00
5872;BME280;2962;51.312;7.378;2023-03-11T00:53:41;96311.63;;;-1.96;100.00
5872;BME280;2962;51.312;7.378;2023-03-11T00:56:07;96317.72;;;-1.95;100.00
5872;BME280;2962;51.312;7.378;2023-03-11T00:58:33;96317.06;;;-1.92;100.00
5872;BME280;2962;51.312;7.378;2023-03-11T01:01:00;96331.22;;;-1.83;100.00
5872;BME280;2962;51.312;7.378;2023-03-11T01:03:26;96326.66;;;-1.83;100.00
5872;BME280;2962;51.312;7.378;2023-03-11T01:05:51;96336.84;;;-1.85;100.00
5872;BME280;2962;51.312;7.378;2023-03-11T01:08:16;96341.09;;;-1.92;100.00
5872;BME280;2962;51.312;7.378;2023-03-11T01:10:42;96340.81;;;-1.91;100.00
5872;BME280;2962;51.312;7.378;2023-03-11T01:13:07;96353.69;;;-1.84;100.00
5872;BME280;2962;51.312;7.378;2023-03-11T01:15:35;96359.03;;;-1.84;100.00
5872;BME280;2962;51.312;7.378;2023-03-11T01:18:01;96346.44;;;-1.92;100.00
5872;BME280;2962;51.312;7.378;2023-03-11T01:20:27;96360.72;;;-1.88;100.00
5872;BME280;2962;51.312;7.378;2023-03-11T01:22:52;96361.22;;;-1.86;100.00
5872;BME280;2962;51.312;7.378;2023-03-11T01:25:21;96364.19;;;-1.79;100.00
5872;BME280;2962;51.312;7.378;2023-03-11T01:27:46;96358.38;;;-1.81;100.00
5872;BME280;2962;51.312;7.378;2023-03-11T01:30:14;96378.94;;;-1.73;100.00
5872;BME280;2962;51.312;7.378;2023-03-11T01:32:40;96369.53;;;-1.79;100.00
5872;BME280;2962;51.312;7.378;2023-03-11T01:35:06;96368.44;;;-1.87;100.00
5872;BME280;2962;51.312;7.378;2023-03-11T01:37:31;96373.31;;;-1.80;100.00
5872;BME280;2962;51.312;7.378;2023-03-11T01:39:57;96370.78;;;-1.85;100.00
5872;BME280;2962;51.312;7.378;2023-03-11T01:42:22;96368.59;;;-1.92;100.00
5872;BME280;2962;51.312;7.378;2023-03-11T01:44:47;96377.84;;;-1.89;100.00
5872;BME280;2962;51.312;7.378;2023-03-11T01:49:38;96373.94;;;-1.83;100.00
5872;BME280;2962;51.312;7.378;2023-03-11T01:52:06;96373.28;;;-1.89;100.00
5872;BME280;2962;51.312;7.378;2023-03-11T01:54:37;96380.69;;;-1.86;100.00
5872;BME280;2962;51.312;7.378;2023-03-11T01:57:09;96377.22;;;-1.86;100.00
5872;BME280;2962;51.312;7.378;2023-03-11T01:59:38;96381.16;;;-1.84;100.00
5872;BME280;2962;51.312;7.378;2023-03-11T02:02:29;96389.47;;;-1.85;100.00
5872;BME280;2962;51.312;7.378;2023-03-11T02:04:55;96377.84;;;-1.89;100.00
5872;BME280;2962;51.312;7.378;2023-03-11T02:07:21;96386.97;;;-1.90;100.00
5872;BME280;2962;51.312;7.378;2023-03-11T02:09:46;96387.13;;;-1.78;100.00
5872;BME280;2962;51.312;7.378;2023-03-11T02:12:13;96382.25;;;-1.85;100.00
5872;BME280;2962;51.312;7.378;2023-03-11T02:14:42;96378.47;;;-1.92;100.00
5872;BME280;2962;51.312;7.378;2023-03-11T02:17:08;96381.00;;;-1.96;100.00
5872;BME280;2962;51.312;7.378;2023-03-11T02:19:55;96387.13;;;-1.95;100.00
5872;BME280;2962;51.312;7.378;2023-03-11T02:22:23;96400.00;;;-1.80;100.00
5872;BME280;2962;51.312;7.378;2023-03-11T02:27:26;96395.47;;;-1.80;100.00
5872;BME280;2962;51.312;7.378;2023-03-11T02:29:53;96395.13;;;-1.95;100.00
5872;BME280;2962;51.312;7.378;2023-03-11T02:32:21;96396.88;;;-2.00;100.00
5872;BME280;2962;51.312;7.378;2023-03-11T02:34:46;96393.72;;;-2.02;100.00
5872;BME280;2962;51.312;7.378;2023-03-11T02:37:14;96395.75;;;-1.99;100.00
5872;BME280;2962;51.312;7.378;2023-03-11T02:39:46;96388.84;;;-2.00;100.00
5872;BME280;2962;51.312;7.378;2023-03-11T02:42:18;96383.66;;;-2.05;100.00
5872;BME280;2962;51.312;7.378;2023-03-11T02:45:00;96393.09;;;-2.07;100.00
5872;BME280;2962;51.312;7.378;2023-03-11T02:47:27;96401.09;;;-2.07;100.00
5872;BME280;2962;51.312;7.378;2023-03-11T02:49:53;96405.00;;;-2.05;100.00
5872;BME280;2962;51.312;7.378;2023-03-11T02:52:20;96400.94;;;-2.11;100.00
5872;BME280;2962;51.312;7.378;2023-03-11T02:54:46;96409.09;;;-1.99;100.00
5872;BME280;2962;51.312;7.378;2023-03-11T02:57:11;96401.09;;;-2.07;100.00
5872;BME280;2962;51.312;7.378;2023-03-11T02:59:36;96412.88;;;-2.00;100.00
5872;BME280;2962;51.312;7.378;2023-03-11T03:02:01;96401.88;;;-2.07;100.00
5872;BME280;2962;51.312;7.378;2023-03-11T03:04:27;96415.84;;;-2.01;100.00
5872;BME280;2962;51.312;7.378;2023-03-11T03:06:52;96418.00;;;-2.12;100.00
5872;BME280;2962;51.312;7.378;2023-03-11T03:09:17;96426.97;;;-2.08;100.00
5872;BME280;2962;51.312;7.378;2023-03-11T03:11:43;96416.72;;;-2.23;100.00
5872;BME280;2962;51.312;7.378;2023-03-11T03:14:08;96423.81;;;-2.18;100.00
5872;BME280;2962;51.312;7.378;2023-03-11T03:16:33;96424.59;;;-2.27;100.00
5872;BME280;2962;51.312;7.378;2023-03-11T03:18:58;96431.19;;;-2.24;100.00
5872;BME280;2962;51.312;7.378;2023-03-11T03:21:24;96426.44;;;-2.27;100.00
5872;BME280;2962;51.312;7.378;2023-03-11T03:23:49;96430.22;;;-2.28;100.00
5872;BME280;2962;51.312;7.378;2023-03-11T03:26:14;96425.84;;;-2.24;100.00
5872;BME280;2962;51.312;7.378;2023-03-11T03:28:40;96437.63;;;-2.25;100.00
5872;BME280;2962;51.312;7.378;2023-03-11T03:31:06;96435.09;;;-2.30;100.00
5872;BME280;2962;51.312;7.378;2023-03-11T03:33:32;96432.91;;;-2.28;100.00
5872;BME280;2962;51.312;7.378;2023-03-11T03:35:57;96442.63;;;-2.32;100.00
5872;BME280;2962;51.312;7.378;2023-03-11T03:38:22;96436.16;;;-2.31;100.00
5872;BME280;2962;51.312;7.378;2023-03-11T03:40:48;96442.78;;;-2.29;100.00
5872;BME280;2962;51.312;7.378;2023-03-11T03:43:14;96450.00;;;-2.29;100.00
5872;BME280;2962;51.312;7.378;2023-03-11T03:45:39;96451.28;;;-2.27;100.00
5872;BME280;2962;51.312;7.378;2023-03-11T03:48:05;96451.09;;;-2.30;100.00
5872;BME280;2962;51.312;7.378;2023-03-11T03:50:30;96455.81;;;-2.27;100.00
5872;BME280;2962;51.312;7.378;2023-03-11T03:52:55;96444.50;;;-2.33;100.00
5872;BME280;2962;51.312;7.378;2023-03-11T03:55:21;96454.22;;;-2.28;100.00
5872;BME280;2962;51.312;7.378;2023-03-11T03:57:46;96465.84;;;-2.24;100.00
5872;BME280;2962;51.312;7.378;2023-03-11T04:00:11;96467.44;;;-2.23;100.00
5872;BME280;2962;51.312;7.378;2023-03-11T04:02:37;96462.25;;;-2.28;100.00
5872;BME280;2962;51.312;7.378;2023-03-11T04:05:03;96465.41;;;-2.17;100.00
5872;BME280;2962;51.312;7.378;2023-03-11T04:07:28;96477.53;;;-2.11;100.00
5872;BME280;2962;51.312;7.378;2023-03-11T04:09:53;96474.69;;;-2.15;100.00
5872;BME280;2962;51.312;7.378;2023-03-11T04:12:19;96481.59;;;-2.14;100.00
5872;BME280;2962;51.312;7.378;2023-03-11T04:14:44;96496.53;;;-2.04;100.00
5872;BME280;2962;51.312;7.378;2023-03-11T04:17:11;96483.50;;;-1.97;100.00
5872;BME280;2962;51.312;7.378;2023-03-11T04:19:37;96482.44;;;-1.96;100.00
5872;BME280;2962;51.312;7.378;2023-03-11T04:22:03;96494.06;;;-1.92;100.00
5872;BME280;2962;51.312;7.378;2023-03-11T04:24:28;96504.56;;;-1.95;100.00
5872;BME280;2962;51.312;7.378;2023-03-11T04:26:53;96489.63;;;-2.05;100.00
5872;BME280;2962;51.312;7.378;2023-03-11T04:29:19;96492.13;;;-2.09;100.00
5872;BME280;2962;51.312;7.378;2023-03-11T04:31:44;96498.41;;;-2.05;100.00
5872;BME280;2962;51.312;7.378;2023-03-11T04:34:09;96501.06;;;-2.05;100.00
5872;BME280;2962;51.312;7.378;2023-03-11T04:36:35;96502.94;;;-2.14;100.00
5872;BME280;2962;51.312;7.378;2023-03-11T04:39:00;96511.41;;;-2.12;100.00
5872;BME280;2962;51.312;7.378;2023-03-11T04:41:25;96507.66;;;-2.11;100.00
5872;BME280;2962;51.312;7.378;2023-03-11T04:43:51;96502.78;;;-2.17;100.00
5872;BME280;2962;51.312;7.378;2023-03-11T04:46:16;96519.41;;;-2.12;100.00
5872;BME280;2962;51.312;7.378;2023-03-11T04:48:41;96518.16;;;-2.14;100.00
5872;BME280;2962;51.312;7.378;2023-03-11T04:51:07;96508.09;;;-2.17;100.00
5872;BME280;2962;51.312;7.378;2023-03-11T04:53:32;96516.44;;;-2.19;100.00
5872;BME280;2962;51.312;7.378;2023-03-11T04:55:58;96530.25;;;-2.17;100.00
5872;BME280;2962;51.312;7.378;2023-03-11T04:58:23;96517.97;;;-2.27;100.00
5872;BME280;2962;51.312;7.378;2023-03-11T05:00:48;96539.47;;;-2.23;100.00
5872;BME280;2962;51.312;7.378;2023-03-11T05:03:14;96531.47;;;-2.23;100.00
5872;BME280;2962;51.312;7.378;2023-03-11T05:05:39;96534.97;;;-2.14;100.00
5872;BME280;2962;51.312;7.378;2023-03-11T05:08:04;96532.44;;;-2.19;100.00
5872;BME280;2962;51.312;7.378;2023-03-11T05:10:30;96539.19;;;-2.13;100.00
5872;BME280;2962;51.312;7.378;2023-03-11T05:12:55;96530.84;;;-2.20;100.00
5872;BME280;2962;51.312;7.378;2023-03-11T05:15:20;96537.03;;;-2.11;100.00
5872;BME280;2962;51.312;7.378;2023-03-11T05:17:45;96533.53;;;-2.20;100.00
5872;BME280;2962;51.312;7.378;2023-03-11T05:20:11;96547.97;;;-2.21;100.00
5872;BME280;2962;51.312;7.378;2023-03-11T05:22:37;96542.13;;;-2.23;100.00
5872;BME280;2962;51.312;7.378;2023-03-11T05:25:03;96541.97;;;-2.27;100.00
5872;BME280;2962;51.312;7.378;2023-03-11T05:27:29;96538.34;;;-2.31;100.00
5872;BME280;2962;51.312;7.378;2023-03-11T05:29:54;96554.03;;;-2.29;100.00
5872;BME280;2962;51.312;7.378;2023-03-11T05:32:20;96560.16;;;-2.29;100.00
5872;BME280;2962;51.312;7.378;2023-03-11T05:34:45;96554.84;;;-2.29;100.00
5872;BME280;2962;51.312;7.378;2023-03-11T05:37:11;96560.94;;;-2.28;100.00
5872;BME280;2962;51.312;7.378;2023-03-11T05:39:36;96558.72;;;-2.35;100.00
5872;BME280;2962;51.312;7.378;2023-03-11T05:42:03;96567.53;;;-2.34;100.00
5872;BME280;2962;51.312;7.378;2023-03-11T05:44:28;96563.75;;;-2.33;100.00
5872;BME280;2962;51.312;7.378;2023-03-11T05:46:54;96558.06;;;-2.40;100.00
5872;BME280;2962;51.312;7.378;2023-03-11T05:49:19;96573.66;;;-2.34;100.00
5872;BME280;2962;51.312;7.378;2023-03-11T05:51:45;96584.50;;;-2.30;100.00
5872;BME280;2962;51.312;7.378;2023-03-11T05:54:12;96567.69;;;-2.31;100.00
5872;BME280;2962;51.312;7.378;2023-03-11T05:56:40;96579.41;;;-2.40;100.00
5872;BME280;2962;51.312;7.378;2023-03-11T05:59:06;96557.28;;;-2.41;100.00
5872;BME280;2962;51.312;7.378;2023-03-11T06:01:31;96565.94;;;-2.35;100.00
5872;BME280;2962;51.312;7.378;2023-03-11T06:03:56;96571.72;;;-2.42;100.00
5872;BME280;2962;51.312;7.378;2023-03-11T06:06:21;96582.06;;;-2.40;100.00
5872;BME280;2962;51.312;7.378;2023-03-11T06:08:48;96571.53;;;-2.46;100.00
5872;BME280;2962;51.312;7.378;2023-03-11T06:11:14;96586.03;;;-2.38;100.00
5872;BME280;2962;51.312;7.378;2023-03-11T06:13:39;96582.81;;;-2.49;100.00
5872;BME280;2962;51.312;7.378;2023-03-11T06:16:05;96588.50;;;-2.41;100.00
5872;BME280;2962;51.312;7.378;2023-03-11T06:18:30;96591.81;;;-2.36;100.00
5872;BME280;2962;51.312;7.378;2023-03-11T06:21:00;96591.47;;;-2.43;100.00
5872;BME280;2962;51.312;7.378;2023-03-11T06:23:26;96594.81;;;-2.37;100.00
5872;BME280;2962;51.312;7.378;2023-03-11T06:25:58;96604.88;;;-2.34;100.00
5872;BME280;2962;51.312;7.378;2023-03-11T06:28:25;96593.72;;;-2.36;100.00
5872;BME280;2962;51.312;7.378;2023-03-11T06:30:50;96600.50;;;-2.30;100.00
5872;BME280;2962;51.312;7.378;2023-03-11T06:33:15;96589.84;;;-2.30;100.00
5872;BME280;2962;51.312;7.378;2023-03-11T06:35:41;96598.78;;;-2.26;100.00
5872;BME280;2962;51.312;7.378;2023-03-11T06:38:06;96596.59;;;-2.24;100.00
5872;BME280;2962;51.312;7.378;2023-03-11T06:40:32;96613.47;;;-2.15;100.00
5872;BME280;2962;51.312;7.378;2023-03-11T06:42:57;96628.41;;;-2.05;100.00
5872;BME280;2962;51.312;7.378;2023-03-11T06:45:22;96624.03;;;-2.01;100.00
5872;BME280;2962;51.312;7.378;2023-03-11T06:47:48;96630.78;;;-2.04;100.00
5872;BME280;2962;51.312;7.378;2023-03-11T06:50:13;96624.97;;;-1.97;100.00
5872;BME280;2962;51.312;7.378;2023-03-11T06:52:38;96625.66;;;-1.91;100.00
5872;BME280;2962;51.312;7.378;2023-03-11T06:55:04;96636.00;;;-1.90;100.00
5872;BME280;2962;51.312;7.378;2023-03-11T06:57:30;96639.06;;;-1.74;100.00
5872;BME280;2962;51.312;7.378;2023-03-11T06:59:55;96640.19;;;-1.66;100.00
5872;BME280;2962;51.312;7.378;2023-03-11T07:02:20;96647.63;;;-1.55;100.00
5872;BME280;2962;51.312;7.378;2023-03-11T07:04:48;96648.88;;;-1.61;100.00
5872;BME280;2962;51.312;7.378;2023-03-11T07:07:13;96655.00;;;-1.60;100.00
5872;BME280;2962;51.312;7.378;2023-03-11T07:09:38;96647.44;;;-1.58;100.00
5872;BME280;2962;51.312;7.378;2023-03-11T07:12:04;96660.09;;;-1.41;100.00
5872;BME280;2962;51.312;7.378;2023-03-11T07:14:29;96666.81;;;-1.53;100.00
5872;BME280;2962;51.312;7.378;2023-03-11T07:16:54;96658.47;;;-1.51;100.00
5872;BME280;2962;51.312;7.378;2023-03-11T07:19:20;96675.50;;;-1.38;100.00
5872;BME280;2962;51.312;7.378;2023-03-11T07:21:45;96674.56;;;-1.34;100.00
5872;BME280;2962;51.312;7.378;2023-03-11T07:24:12;96670.00;;;-1.33;100.00
5872;BME280;2962;51.312;7.378;2023-03-11T07:26:38;96672.19;;;-1.35;100.00
5872;BME280;2962;51.312;7.378;2023-03-11T07:29:03;96684.59;;;-1.39;100.00
5872;BME280;2962;51.312;7.378;2023-03-11T07:31:32;96690.47;;;-1.29;100.00
5872;BME280;2962;51.312;7.378;2023-03-11T07:33:59;96697.88;;;-1.17;100.00
5872;BME280;2962;51.312;7.378;2023-03-11T07:36:26;96695.53;;;-1.10;100.00
5872;BME280;2962;51.312;7.378;2023-03-11T07:38:56;96698.22;;;-1.10;100.00
5872;BME280;2962;51.312;7.378;2023-03-11T07:41:24;96703.22;;;-1.17;100.00
5872;BME280;2962;51.312;7.378;2023-03-11T07:43:53;96709.09;;;-0.98;100.00
5872;BME280;2962;51.312;7.378;2023-03-11T07:46:20;96717.28;;;-0.85;100.00
5872;BME280;2962;51.312;7.378;2023-03-11T07:48:47;96711.59;;;-0.92;100.00
5872;BME280;2962;51.312;7.378;2023-03-11T07:51:14;96723.81;;;-0.34;100.00
5872;BME280;2962;51.312;7.378;2023-03-11T07:53:40;96726.78;;;-0.27;100.00
5872;BME280;2962;51.312;7.378;2023-03-11T07:56:06;96742.53;;;-0.17;100.00
5872;BME280;2962;51.312;7.378;2023-03-11T07:58:32;96737.03;;;-0.03;100.00
5872;BME280;2962;51.312;7.378;2023-03-11T08:01:05;96746.00;;;-0.08;100.00
5872;BME280;2962;51.312;7.378;2023-03-11T08:03:32;96715.94;;;-0.22;100.00
5872;BME280;2962;51.312;7.378;2023-03-11T08:05:58;96744.59;;;-0.14;100.00
5872;BME280;2962;51.312;7.378;2023-03-11T08:08:23;96744.91;;;-0.15;100.00
5872;BME280;2962;51.312;7.378;2023-03-11T08:10:48;96743.16;;;-0.20;100.00
5872;BME280;2962;51.312;7.378;2023-03-11T08:13:14;96742.84;;;-0.10;100.00
5872;BME280;2962;51.312;7.378;2023-03-11T08:15:39;96741.25;;;0.07;100.00
5872;BME280;2962;51.312;7.378;2023-03-11T08:18:04;96756.22;;;0.16;100.00
5872;BME280;2962;51.312;7.378;2023-03-11T08:20:30;96755.88;;;0.35;100.00
5872;BME280;2962;51.312;7.378;2023-03-11T08:22:55;96758.06;;;0.42;100.00
5872;BME280;2962;51.312;7.378;2023-03-11T08:25:20;96741.69;;;0.26;100.00
5872;BME280;2962;51.312;7.378;2023-03-11T08:27:45;96750.34;;;0.40;100.00
5872;BME280;2962;51.312;7.378;2023-03-11T08:30:11;96744.19;;;0.40;100.00
5872;BME280;2962;51.312;7.378;2023-03-11T08:32:36;96756.91;;;0.60;100.00
5872;BME280;2962;51.312;7.378;2023-03-11T08:35:02;96737.75;;;0.32;100.00
5872;BME280;2962;51.312;7.378;2023-03-11T08:37:27;96751.38;;;0.65;100.00
5872;BME280;2962;51.312;7.378;2023-03-11T08:39:52;96762.13;;;0.65;100.00
5872;BME280;2962;51.312;7.378;2023-03-11T08:42:18;96757.75;;;0.90;100.00
5872;BME280;2962;51.312;7.378;2023-03-11T08:44:43;96769.88;;;0.96;100.00
5872;BME280;2962;51.312;7.378;2023-03-11T08:47:09;96760.09;;;0.92;100.00
5872;BME280;2962;51.312;7.378;2023-03-11T08:49:35;96757.34;;;1.09;100.00
5872;BME280;2962;51.312;7.378;2023-03-11T08:52:01;96764.56;;;1.17;100.00
5872;BME280;2962;51.312;7.378;2023-03-11T08:54:26;96763.50;;;1.10;100.00
5872;BME280;2962;51.312;7.378;2023-03-11T08:56:51;96766.75;;;1.24;100.00
5872;BME280;2962;51.312;7.378;2023-03-11T08:59:17;96763.84;;;1.59;100.00
5872;BME280;2962;51.312;7.378;2023-03-11T09:01:42;96752.53;;;1.74;100.00
5872;BME280;2962;51.312;7.378;2023-03-11T09:04:07;96765.97;;;1.74;100.00
5872;BME280;2962;51.312;7.378;2023-03-11T09:06:33;96769.41;;;1.54;100.00
5872;BME280;2962;51.312;7.378;2023-03-11T09:08:58;96778.41;;;1.58;100.00
5872;BME280;2962;51.312;7.378;2023-03-11T09:11:24;96765.91;;;1.62;100.00
5872;BME280;2962;51.312;7.378;2023-03-11T09:13:49;96767.41;;;1.92;100.00
5872;BME280;2962;51.312;7.378;2023-03-11T09:16:17;96771.44;;;2.19;100.00
5872;BME280;2962;51.312;7.378;2023-03-11T09:18:43;96771.66;;;2.27;100.00
5872;BME280;2962;51.312;7.378;2023-03-11T09:21:09;96773.16;;;2.03;100.00
5872;BME280;2962;51.312;7.378;2023-03-11T09:23:34;96770.31;;;2.00;100.00
5872;BME280;2962;51.312;7.378;2023-03-11T09:26:00;96781.38;;;1.56;100.00
5872;BME280;2962;51.312;7.378;2023-03-11T09:28:25;96775.31;;;1.47;100.00
5872;BME280;2962;51.312;7.378;2023-03-11T09:30:50;96775.91;;;1.74;100.00
5872;BME280;2962;51.312;7.378;2023-03-11T09:33:16;96770.06;;;1.71;100.00
5872;BME280;2962;51.312;7.378;2023-03-11T09:35:41;96769.16;;;1.46;100.00
5872;BME280;2962;51.312;7.378;2023-03-11T09:38:06;96779.63;;;2.23;100.00
5872;BME280;2962;51.312;7.378;2023-03-11T09:40:57;96773.97;;;2.37;100.00
5872;BME280;2962;51.312;7.378;2023-03-11T09:46:25;96786.13;;;2.01;100.00
5872;BME280;2962;51.312;7.378;2023-03-11T09:49:02;96765.69;;;2.09;100.00
5872;BME280;2962;51.312;7.378;2023-03-11T09:51:37;96785.84;;;2.15;100.00
5872;BME280;2962;51.312;7.378;2023-03-11T09:54:10;96777.53;;;2.29;100.00
5872;BME280;2962;51.312;7.378;2023-03-11T09:56:37;96781.94;;;2.45;100.00
5872;BME280;2962;51.312;7.378;2023-03-11T09:59:08;96796.13;;;2.34;100.00
5872;BME280;2962;51.312;7.378;2023-03-11T10:01:43;96799.59;;;2.67;100.00
5872;BME280;2962;51.312;7.378;2023-03-11T10:04:19;96789.19;;;2.78;100.00
5872;BME280;2962;51.312;7.378;2023-03-11T10:06:46;96810.22;;;2.64;100.00
5872;BME280;2962;51.312;7.378;2023-03-11T10:09:28;96801.50;;;2.34;100.00
5872;BME280;2962;51.312;7.378;2023-03-11T10:21:05;96806.84;;;2.55;100.00
5872;BME280;2962;51.312;7.378;2023-03-11T10:26:11;96826.28;;;2.39;100.00
5872;BME280;2962;51.312;7.378;2023-03-11T10:29:00;96824.47;;;2.10;100.00
5872;BME280;2962;51.312;7.378;2023-03-11T10:31:37;96820.38;;;1.62;100.00
5872;BME280;2962;51.312;7.378;2023-03-11T10:34:12;96829.22;;;1.63;100.00
5872;BME280;2962;51.312;7.378;2023-03-11T10:37:00;96837.91;;;1.60;100.00
5872;BME280;2962;51.312;7.378;2023-03-11T10:39:29;96824.91;;;1.70;100.00
5872;BME280;2962;51.312;7.378;2023-03-11T10:41:58;96827.31;;;1.84;100.00
5872;BME280;2962;51.312;7.378;2023-03-11T10:44:28;96828.13;;;2.06;100.00
5872;BME280;2962;51.312;7.378;2023-03-11T10:46:55;96827.03;;;2.28;100.00
5872;BME280;2962;51.312;7.378;2023-03-11T10:49:20;96826.06;;;2.65;100.00
5872;BME280;2962;51.312;7.378;2023-03-11T10:51:48;96823.47;;;3.39;100.00
5872;BME280;2962;51.312;7.378;2023-03-11T10:54:38;96812.41;;;4.05;100.00
5872;BME280;2962;51.312;7.378;2023-03-11T10:57:33;96827.78;;;4.45;100.00
5872;BME280;2962;51.312;7.378;2023-03-11T11:00:00;96824.47;;;4.80;100.00
5872;BME280;2962;51.312;7.378;2023-03-11T11:02:28;96836.19;;;5.00;100.00
5872;BME280;2962;51.312;7.378;2023-03-11T11:07:34;96849.25;;;5.45;100.00
5872;BME280;2962;51.312;7.378;2023-03-11T11:10:22;96853.53;;;5.30;100.00
5872;BME280;2962;51.312;7.378;2023-03-11T11:15:21;96837.72;;;3.88;100.00
5872;BME280;2962;51.312;7.378;2023-03-11T11:17:46;96836.50;;;3.61;100.00
5872;BME280;2962;51.312;7.378;2023-03-11T11:20:16;96846.88;;;4.00;100.00
5872;BME280;2962;51.312;7.378;2023-03-11T11:22:57;96833.94;;;4.18;100.00
5872;BME280;2962;51.312;7.378;2023-03-11T11:25:25;96814.94;;;4.54;100.00
5872;BME280;2962;51.312;7.378;2023-03-11T11:27:59;96828.88;;;4.72;100.00
5872;BME280;2962;51.312;7.378;2023-03-11T11:30:27;96824.63;;;4.71;100.00
5872;BME280;2962;51.312;7.378;2023-03-11T11:32:52;96823.16;;;4.46;100.00
5872;BME280;2962;51.312;7.378;2023-03-11T11:35:21;96825.44;;;3.91;100.00
5872;BME280;2962;51.312;7.378;2023-03-11T11:37:54;96809.88;;;3.60;100.00
5872;BME280;2962;51.312;7.378;2023-03-11T11:45:28;96829.06;;;4.35;100.00
5872;BME280;2962;51.312;7.378;2023-03-11T11:47:58;96819.38;;;4.62;100.00
5872;BME280;2962;51.312;7.378;2023-03-11T11:50:32;96823.22;;;5.37;100.00
5872;BME280;2962;51.312;7.378;2023-03-11T11:55:37;96831.84;;;4.67;100.00
5872;BME280;2962;51.312;7.378;2023-03-11T11:58:08;96834.75;;;4.46;100.00
5872;BME280;2962;51.312;7.378;2023-03-11T12:00:42;96824.06;;;4.94;100.00
5872;BME280;2962;51.312;7.378;2023-03-11T12:06:24;96831.84;;;5.58;100.00
5872;BME280;2962;51.312;7.378;2023-03-11T12:09:23;96830.03;;;6.95;100.00
5872;BME280;2962;51.312;7.378;2023-03-11T12:14:35;96828.72;;;6.07;100.00
5872;BME280;2962;51.312;7.378;2023-03-11T12:17:05;96821.47;;;6.11;100.00
5872;BME280;2962;51.312;7.378;2023-03-11T12:22:45;96835.81;;;5.96;100.00
5872;BME280;2962;51.312;7.378;2023-03-11T12:25:32;96835.06;;;6.15;100.00
5872;BME280;2962;51.312;7.378;2023-03-11T12:30:54;96831.44;;;5.76;100.00
5872;BME280;2962;51.312;7.378;2023-03-11T12:36:02;96834.28;;;4.72;100.00
5872;BME280;2962;51.312;7.378;2023-03-11T12:38:35;96845.09;;;5.48;100.00
5872;BME280;2962;51.312;7.378;2023-03-11T12:41:12;96838.44;;;4.98;100.00
5872;BME280;2962;51.312;7.378;2023-03-11T12:46:16;96848.47;;;3.76;100.00
5872;BME280;2962;51.312;7.378;2023-03-11T12:53:55;96846.75;;;4.49;100.00
5872;BME280;2962;51.312;7.378;2023-03-11T12:56:28;96848.59;;;6.15;100.00
5872;BME280;2962;51.312;7.378;2023-03-11T13:02:22;96862.00;;;6.66;74.07
5872;BME280;2962;51.312;7.378;2023-03-11T13:05:04;96849.72;;;6.14;81.62
5872;BME280;2962;51.312;7.378;2023-03-11T13:07:44;96854.66;;;5.29;95.45
5872;BME280;2962;51.312;7.378;2023-03-11T13:10:46;96855.16;;;4.59;100.00
5872;BME280;2962;51.312;7.378;2023-03-11T13:15:53;96854.53;;;3.61;100.00
5872;BME280;2962;51.312;7.378;2023-03-11T13:18:23;96848.25;;;3.20;100.00
5872;BME280;2962;51.312;7.378;2023-03-11T13:20:52;96855.19;;;3.21;100.00
5872;BME280;2962;51.312;7.378;2023-03-11T13:23:24;96854.22;;;4.39;100.00
5872;BME280;2962;51.312;7.378;2023-03-11T13:33:50;96842.22;;;8.56;83.36
5872;BME280;2962;51.312;7.378;2023-03-11T13:39:06;96846.44;;;8.88;59.49
5872;BME280;2962;51.312;7.378;2023-03-11T13:41:40;96842.38;;;9.49;59.42
5872;BME280;2962;51.312;7.378;2023-03-11T13:44:18;96843.06;;;9.87;56.92
5872;BME280;2962;51.312;7.378;2023-03-11T13:46:50;96843.81;;;9.84;51.61
5872;BME280;2962;51.312;7.378;2023-03-11T13:52:01;96840.66;;;11.85;49.35
5872;BME280;2962;51.312;7.378;2023-03-11T13:54:33;96829.25;;;12.40;49.46
5872;BME280;2962;51.312;7.378;2023-03-11T13:57:01;96837.78;;;12.53;47.92
5872;BME280;2962;51.312;7.378;2023-03-11T13:59:32;96834.38;;;12.24;43.87
5872;BME280;2962;51.312;7.378;2023-03-11T14:02:19;96837.91;;;12.10;44.32
5872;BME280;2962;51.312;7.378;2023-03-11T14:04:49;96839.41;;;11.18;46.05
5872;BME280;2962;51.312;7.378;2023-03-11T14:07:29;96848.00;;;11.16;42.70
5872;BME280;2962;51.312;7.378;2023-03-11T14:12:38;96851.16;;;11.72;43.48
5872;BME280;2962;51.312;7.378;2023-03-11T14:15:06;96843.78;;;11.76;43.96
5872;BME280;2962;51.312;7.378;2023-03-11T14:17:32;96849.56;;;13.30;43.15
5872;BME280;2962;51.312;7.378;2023-03-11T14:20:11;96854.50;;;13.53;40.34
5872;BME280;2962;51.312;7.378;2023-03-11T14:22:38;96847.84;;;13.54;39.50
5872;BME280;2962;51.312;7.378;2023-03-11T14:25:06;96849.06;;;15.35;37.85
5872;BME280;2962;51.312;7.378;2023-03-11T14:27:33;96845.31;;;13.18;38.27
5872;BME280;2962;51.312;7.378;2023-03-11T14:29:58;96851.84;;;14.32;37.45
5872;BME280;2962;51.312;7.378;2023-03-11T14:32:28;96847.88;;;14.75;38.01
5872;BME280;2962;51.312;7.378;2023-03-11T14:34:54;96844.28;;;14.81;38.00
5872;BME280;2962;51.312;7.378;2023-03-11T14:37:30;96854.28;;;14.23;37.92